createdAt,value
2023-01-07T00:01:33.005Z,7.68
2023-01-07T00:03:06.124Z,7.43
2023-01-07T00:04:39.092Z,8.65
2023-01-07T00:06:14.777Z,7.82
2023-01-07T00:07:47.741Z,7.75
2023-01-07T00:09:20.766Z,7.03
2023-01-07T00:10:53.720Z,8.05
2023-01-07T00:12:30.763Z,7.10
2023-01-07T00:14:06.625Z,7.47
2023-01-07T00:15:39.692Z,6.40
2023-01-07T00:17:12.779Z,7.22
2023-01-07T00:18:46.431Z,7.57
2023-01-07T00:20:19.424Z,7.13
2023-01-07T00:21:52.399Z,7.85
2023-01-07T00:23:25.646Z,7.22
2023-01-07T00:24:58.697Z,9.07
2023-01-07T00:26:41.793Z,8.50
2023-01-07T00:28:14.801Z,8.00
2023-01-07T00:29:49.268Z,7.53
2023-01-07T00:33:14.333Z,7.00
2023-01-07T00:34:47.314Z,7.10
2023-01-07T00:36:19.790Z,7.00
2023-01-07T00:37:53.856Z,7.07
2023-01-07T00:39:26.868Z,6.78
2023-01-07T00:42:54.617Z,8.20
2023-01-07T00:44:27.536Z,8.05
2023-01-07T00:46:01.875Z,6.90
2023-01-07T00:47:34.853Z,6.95
2023-01-07T00:49:07.744Z,7.53
2023-01-07T00:50:40.853Z,6.93
2023-01-07T00:52:41.352Z,7.65
2023-01-07T00:54:14.431Z,6.50
2023-01-07T00:55:49.351Z,7.80
2023-01-07T00:57:21.275Z,7.18
2023-01-07T00:58:54.170Z,7.93
2023-01-07T01:00:27.716Z,7.10
2023-01-07T01:02:17.355Z,8.73
2023-01-07T01:03:50.295Z,7.00
2023-01-07T01:05:23.681Z,6.78
2023-01-07T01:08:50.659Z,6.85
2023-01-07T01:10:23.791Z,6.32
2023-01-07T01:11:56.785Z,5.85
2023-01-07T01:13:29.743Z,5.90
2023-01-07T01:15:02.755Z,5.85
2023-01-07T01:16:38.918Z,7.10
2023-01-07T01:18:14.069Z,6.60
2023-01-07T01:19:47.098Z,7.10
2023-01-07T01:21:20.068Z,7.20
2023-01-07T01:22:58.873Z,6.25
2023-01-07T01:24:31.994Z,8.27
2023-01-07T01:26:06.720Z,7.97
2023-01-07T01:27:39.725Z,9.10
2023-01-07T01:29:12.676Z,9.90
2023-01-07T01:30:45.643Z,10.05
2023-01-07T01:32:18.700Z,8.55
2023-01-07T01:33:55.921Z,8.02
2023-01-07T01:35:28.936Z,8.23
2023-01-07T01:37:01.896Z,8.57
2023-01-07T01:38:34.832Z,9.10
2023-01-07T01:40:09.298Z,6.95
2023-01-07T01:41:57.398Z,7.65
2023-01-07T01:43:42.067Z,8.63
2023-01-07T01:45:15.174Z,7.47
2023-01-07T01:46:47.216Z,7.50
2023-01-07T01:48:22.671Z,6.72
2023-01-07T01:50:01.968Z,10.50
2023-01-07T01:51:39.859Z,8.23
2023-01-07T01:53:16.799Z,8.07
2023-01-07T01:54:53.612Z,7.57
2023-01-07T01:56:50.933Z,6.65
2023-01-07T01:58:29.358Z,6.50
2023-01-07T02:00:01.848Z,6.93
2023-01-07T02:01:50.810Z,6.38
2023-01-07T02:03:39.897Z,7.47
2023-01-07T02:05:14.314Z,6.93
2023-01-07T02:06:52.271Z,7.25
2023-01-07T02:08:25.347Z,8.02
2023-01-07T02:10:01.622Z,7.15
2023-01-07T02:12:43.178Z,6.55
2023-01-07T02:14:33.651Z,6.25
2023-01-07T02:16:37.245Z,7.45
2023-01-07T02:18:24.990Z,7.78
2023-01-07T02:20:30.557Z,7.30
2023-01-07T02:22:59.397Z,6.68
2023-01-07T02:25:06.161Z,7.72
2023-01-07T02:27:04.927Z,8.38
2023-01-07T02:29:01.676Z,6.65
2023-01-07T02:30:56.276Z,8.02
2023-01-07T02:35:36.910Z,8.85
2023-01-07T02:37:15.844Z,8.18
2023-01-07T02:39:04.932Z,7.05
2023-01-07T02:40:46.978Z,7.75
2023-01-07T02:44:20.163Z,7.13
2023-01-07T02:46:04.546Z,7.30
2023-01-07T02:47:39.951Z,7.63
2023-01-07T02:49:18.164Z,6.55
2023-01-07T02:50:51.116Z,7.35
2023-01-07T02:52:26.154Z,7.85
2023-01-07T02:53:59.249Z,7.10
2023-01-07T02:55:52.737Z,6.55
2023-01-07T02:57:41.479Z,7.82
2023-01-07T02:59:53.227Z,8.63
2023-01-07T03:02:09.764Z,6.85
2023-01-07T03:04:02.948Z,9.05
2023-01-07T03:06:00.848Z,7.88
2023-01-07T03:07:47.201Z,8.57
2023-01-07T03:09:30.375Z,8.38
2023-01-07T03:11:20.532Z,8.10
2023-01-07T03:12:58.369Z,7.57
2023-01-07T03:14:36.737Z,8.13
2023-01-07T03:16:28.712Z,7.45
2023-01-07T03:18:29.384Z,7.45
2023-01-07T03:20:06.997Z,10.65
2023-01-07T03:21:41.496Z,7.70
2023-01-07T03:23:16.305Z,7.07
2023-01-07T03:24:52.210Z,8.77
2023-01-07T03:26:47.199Z,7.90
2023-01-07T03:28:25.806Z,7.55
2023-01-07T03:29:59.058Z,7.90
2023-01-07T03:31:32.607Z,7.53
2023-01-07T03:33:12.363Z,8.52
2023-01-07T03:34:46.725Z,9.77
2023-01-07T03:36:22.915Z,8.35
2023-01-07T03:37:59.249Z,9.40
2023-01-07T03:39:35.648Z,8.32
2023-01-07T03:41:08.579Z,6.55
2023-01-07T03:42:41.764Z,8.55
2023-01-07T03:44:13.755Z,8.73
2023-01-07T03:45:47.498Z,9.88
2023-01-07T03:49:07.898Z,7.82
2023-01-07T03:50:40.855Z,8.68
2023-01-07T03:52:13.902Z,7.18
2023-01-07T03:53:48.132Z,7.80
2023-01-07T03:55:21.358Z,9.05
2023-01-07T03:56:54.379Z,8.77
2023-01-07T03:58:27.462Z,8.32
2023-01-07T04:00:00.796Z,8.80
2023-01-07T04:03:51.951Z,8.10
2023-01-07T04:05:25.007Z,8.50
2023-01-07T04:06:57.988Z,6.90
2023-01-07T04:08:31.123Z,8.18
2023-01-07T04:10:06.371Z,6.25
2023-01-07T04:12:07.926Z,6.80
2023-01-07T04:14:08.548Z,6.60
2023-01-07T04:15:42.517Z,6.30
2023-01-07T04:17:15.525Z,6.72
2023-01-07T04:18:47.515Z,7.22
2023-01-07T04:20:20.483Z,6.38
2023-01-07T04:22:15.096Z,5.72
2023-01-07T04:24:16.167Z,6.32
2023-01-07T04:25:50.705Z,8.40
2023-01-07T04:27:23.662Z,8.25
2023-01-07T04:28:55.634Z,6.63
2023-01-07T04:30:28.655Z,6.75
2023-01-07T04:32:01.623Z,6.10
2023-01-07T04:33:35.864Z,6.10
2023-01-07T04:35:09.697Z,6.63
2023-01-07T04:36:54.983Z,6.80
2023-01-07T04:38:40.370Z,5.55
2023-01-07T04:40:13.833Z,12.75
2023-01-07T04:41:48.458Z,7.45
2023-01-07T04:43:20.474Z,9.05
2023-01-07T04:44:53.664Z,9.55
2023-01-07T04:48:13.585Z,7.22
2023-01-07T04:49:47.086Z,6.70
2023-01-07T04:51:20.275Z,7.28
2023-01-07T04:52:53.346Z,7.38
2023-01-07T04:54:25.330Z,6.40
2023-01-07T04:55:58.297Z,6.88
2023-01-07T04:57:57.798Z,7.35
2023-01-07T04:59:30.758Z,9.77
2023-01-07T05:01:03.822Z,5.97
2023-01-07T05:02:37.321Z,7.28
2023-01-07T05:04:10.366Z,6.35
2023-01-07T05:05:42.371Z,6.13
2023-01-07T05:07:15.366Z,6.95
2023-01-07T05:08:57.449Z,8.10
2023-01-07T05:10:30.379Z,6.55
2023-01-07T05:12:03.439Z,6.22
2023-01-07T05:13:37.824Z,8.43
2023-01-07T05:15:11.579Z,7.05
2023-01-07T05:17:00.120Z,7.55
2023-01-07T05:18:33.562Z,7.45
2023-01-07T05:21:40.774Z,6.35
2023-01-07T05:23:13.785Z,9.98
2023-01-07T05:24:46.865Z,6.75
2023-01-07T05:26:37.961Z,7.45
2023-01-07T05:28:12.034Z,5.63
2023-01-07T05:29:46.365Z,8.70
2023-01-07T05:31:28.207Z,6.55
2023-01-07T05:33:01.116Z,6.45
2023-01-07T05:34:34.208Z,6.88
2023-01-07T05:36:07.645Z,7.93
2023-01-07T05:39:13.530Z,6.60
2023-01-07T05:40:50.117Z,7.68
2023-01-07T05:42:23.144Z,8.65
2023-01-07T05:43:56.040Z,7.25
2023-01-07T05:45:30.380Z,6.93
2023-01-07T05:47:03.462Z,9.20
2023-01-07T05:48:36.358Z,7.15
2023-01-07T05:50:09.574Z,8.00
2023-01-07T05:51:42.575Z,9.13
2023-01-07T05:53:24.813Z,7.65
2023-01-07T05:54:57.710Z,7.65
2023-01-07T05:56:30.624Z,10.00
2023-01-07T05:58:03.550Z,7.10
2023-01-07T05:59:36.652Z,8.98
2023-01-07T06:01:29.805Z,8.23
2023-01-07T06:03:02.757Z,8.23
2023-01-07T06:04:35.630Z,8.60
2023-01-07T06:06:17.802Z,8.90
2023-01-07T06:07:50.694Z,8.45
2023-01-07T06:09:23.647Z,8.18
2023-01-07T06:10:56.587Z,7.72
2023-01-07T06:12:29.526Z,7.13
2023-01-07T06:14:02.474Z,7.00
2023-01-07T06:15:35.552Z,7.25
2023-01-07T06:17:25.215Z,6.32
2023-01-07T06:18:58.218Z,6.00
2023-01-07T06:20:34.499Z,6.88
2023-01-07T06:22:07.445Z,7.30
2023-01-07T06:23:40.539Z,9.18
2023-01-07T06:25:14.700Z,9.30
2023-01-07T06:26:47.742Z,7.97
2023-01-07T06:28:20.791Z,8.23
2023-01-07T06:29:53.727Z,7.53
2023-01-07T06:31:26.996Z,8.45
2023-01-07T06:33:01.802Z,8.20
2023-01-07T06:34:34.791Z,7.60
2023-01-07T06:36:20.045Z,9.10
2023-01-07T06:37:53.007Z,8.70
2023-01-07T06:39:25.882Z,7.35
2023-01-07T06:40:58.658Z,8.48
2023-01-07T06:42:31.695Z,8.80
2023-01-07T06:44:04.767Z,7.55
2023-01-07T06:45:39.024Z,8.57
2023-01-07T06:47:28.081Z,9.20
2023-01-07T06:49:02.630Z,8.85
2023-01-07T06:50:35.680Z,8.30
2023-01-07T06:52:08.601Z,7.57
2023-01-07T06:53:41.557Z,8.48
2023-01-07T06:55:14.483Z,8.32
2023-01-07T06:56:47.327Z,9.05
2023-01-07T06:58:20.531Z,10.45
2023-01-07T06:59:53.482Z,9.57
2023-01-07T07:01:26.586Z,9.02
2023-01-07T07:02:59.639Z,9.80
2023-01-07T07:04:33.934Z,8.30
2023-01-07T07:06:21.976Z,8.63
2023-01-07T07:07:54.938Z,8.60
2023-01-07T07:09:27.810Z,8.77
2023-01-07T07:11:00.797Z,9.95
2023-01-07T07:12:33.797Z,8.80
2023-01-07T07:14:06.765Z,8.55
2023-01-07T07:15:39.845Z,10.50
2023-01-07T07:17:13.236Z,9.02
2023-01-07T07:20:20.381Z,8.98
2023-01-07T07:21:53.479Z,10.32
2023-01-07T07:23:26.670Z,10.88
2023-01-07T07:24:59.580Z,8.93
2023-01-07T07:26:35.614Z,9.05
2023-01-07T07:28:08.517Z,9.43
2023-01-07T07:29:41.627Z,8.50
2023-01-07T07:31:32.395Z,9.55
2023-01-07T07:33:08.484Z,9.23
2023-01-07T07:34:41.498Z,9.23
2023-01-07T07:36:15.833Z,8.40
2023-01-07T07:37:48.831Z,9.30
2023-01-07T07:39:21.693Z,10.85
2023-01-07T07:40:54.659Z,8.95
2023-01-07T07:42:27.571Z,11.60
2023-01-07T07:44:00.491Z,10.45
2023-01-07T07:45:33.530Z,9.88
2023-01-07T07:47:06.577Z,9.88
2023-01-07T07:48:39.549Z,9.07
2023-01-07T07:50:12.531Z,10.25
2023-01-07T07:51:53.152Z,10.38
2023-01-07T07:53:26.205Z,9.75
2023-01-07T07:55:20.321Z,9.27
2023-01-07T07:56:52.180Z,11.35
2023-01-07T07:58:25.142Z,9.63
2023-01-07T07:59:58.144Z,10.65
2023-01-07T08:01:31.166Z,10.43
2023-01-07T08:03:04.531Z,9.98
2023-01-07T08:06:12.610Z,10.20
2023-01-07T08:07:46.959Z,9.10
2023-01-07T08:09:20.020Z,10.15
2023-01-07T08:10:55.264Z,9.73
2023-01-07T08:12:28.167Z,14.00
2023-01-07T08:14:01.353Z,11.60
2023-01-07T08:15:34.532Z,10.93
2023-01-07T08:17:07.517Z,9.80
2023-01-07T08:18:40.802Z,8.93
2023-01-07T08:21:52.883Z,10.45
2023-01-07T08:24:16.487Z,11.50
2023-01-07T08:25:50.833Z,11.25
2023-01-07T08:27:23.836Z,10.25
2023-01-07T08:28:56.709Z,12.13
2023-01-07T08:30:30.725Z,9.15
2023-01-07T08:32:03.701Z,9.50
2023-01-07T08:33:39.702Z,9.95
2023-01-07T08:35:12.807Z,11.32
2023-01-07T08:36:45.709Z,10.82
2023-01-07T08:38:18.739Z,9.50
2023-01-07T08:39:51.756Z,9.90
2023-01-07T08:41:38.379Z,10.20
2023-01-07T08:43:12.248Z,9.40
2023-01-07T08:44:45.354Z,8.70
2023-01-07T08:46:18.456Z,8.57
2023-01-07T08:47:51.508Z,8.48
2023-01-07T08:49:24.685Z,10.80
2023-01-07T08:50:57.624Z,8.90
2023-01-07T08:52:30.988Z,9.50
2023-01-07T08:56:01.812Z,8.55
2023-01-07T08:57:36.165Z,8.82
2023-01-07T08:59:09.374Z,7.90
2023-01-07T09:00:42.903Z,7.47
2023-01-07T09:04:47.564Z,6.60
2023-01-07T09:07:54.302Z,7.80
2023-01-07T09:09:27.303Z,9.10
2023-01-07T09:11:00.280Z,8.75
2023-01-07T09:12:40.447Z,7.43
2023-01-07T09:14:57.601Z,7.40
2023-01-07T09:16:30.719Z,8.45
2023-01-07T09:18:04.083Z,7.05
2023-01-07T09:21:16.042Z,7.22
2023-01-07T09:23:01.377Z,9.40
2023-01-07T09:24:34.288Z,8.68
2023-01-07T09:26:07.723Z,8.80
2023-01-07T09:29:15.588Z,8.50
2023-01-07T09:30:48.640Z,7.30
2023-01-07T09:32:21.847Z,7.82
2023-01-07T09:33:54.792Z,7.43
2023-01-07T09:35:27.827Z,8.20
2023-01-07T09:37:00.784Z,9.90
2023-01-07T09:38:34.050Z,12.75
2023-01-07T09:40:09.350Z,7.93
2023-01-07T09:42:20.554Z,7.80
2023-01-07T09:44:16.810Z,8.13
2023-01-07T09:45:53.537Z,8.98
2023-01-07T09:47:30.221Z,7.40
2023-01-07T09:49:04.831Z,7.45
2023-01-07T09:50:47.759Z,8.18
2023-01-07T09:53:15.669Z,7.07
2023-01-07T09:54:53.540Z,8.00
2023-01-07T09:56:28.809Z,9.52
2023-01-07T09:58:01.865Z,8.10
2023-01-07T09:59:36.244Z,7.93
2023-01-07T10:01:43.329Z,7.03
2023-01-07T10:03:37.398Z,8.52
2023-01-07T10:05:23.897Z,8.68
2023-01-07T10:07:03.318Z,9.68
2023-01-07T10:08:46.251Z,8.65
2023-01-07T10:10:27.075Z,8.85
2023-01-07T10:12:33.383Z,7.70
2023-01-07T10:14:35.025Z,7.63
2023-01-07T10:16:15.594Z,7.03
2023-01-07T10:18:00.548Z,7.65
2023-01-07T10:19:44.560Z,7.15
2023-01-07T10:21:25.362Z,6.38
2023-01-07T10:23:21.149Z,6.90
2023-01-07T10:24:59.243Z,7.43
2023-01-07T10:26:36.709Z,9.95
2023-01-07T10:28:15.868Z,6.30
2023-01-07T10:29:52.184Z,8.13
2023-01-07T10:31:58.968Z,6.55
2023-01-07T10:33:34.278Z,6.50
2023-01-07T10:35:14.804Z,6.35
2023-01-07T10:37:06.893Z,6.43
2023-01-07T10:38:43.190Z,7.07
2023-01-07T10:40:28.415Z,5.50
2023-01-07T10:42:11.219Z,4.20
2023-01-07T10:44:06.340Z,6.40
2023-01-07T10:46:01.380Z,5.20
2023-01-07T10:47:48.330Z,4.93
2023-01-07T10:49:39.139Z,5.13
2023-01-07T10:51:47.928Z,6.10
2023-01-07T10:55:52.993Z,4.50
2023-01-07T10:57:29.609Z,5.32
2023-01-07T10:59:02.816Z,7.05
2023-01-07T11:00:35.836Z,7.03
2023-01-07T11:02:59.164Z,5.00
2023-01-07T11:05:17.618Z,5.60
2023-01-07T11:06:58.381Z,4.97
2023-01-07T11:08:38.182Z,6.00
2023-01-07T11:10:17.399Z,5.00
2023-01-07T11:12:26.495Z,6.38
2023-01-07T11:14:40.291Z,5.75
2023-01-07T11:16:18.282Z,5.45
2023-01-07T11:17:54.943Z,5.25
2023-01-07T11:19:45.424Z,6.05
2023-01-07T11:21:43.017Z,4.68
2023-01-07T11:23:44.964Z,5.50
2023-01-07T11:25:29.587Z,5.32
2023-01-07T11:27:06.652Z,6.32
2023-01-07T11:28:45.144Z,4.50
2023-01-07T11:30:25.892Z,6.53
2023-01-07T11:32:05.952Z,4.90
2023-01-07T11:34:01.559Z,4.80
2023-01-07T11:35:35.977Z,5.82
2023-01-07T11:37:12.517Z,5.80
2023-01-07T11:38:48.405Z,5.93
2023-01-07T11:40:24.642Z,5.32
2023-01-07T11:42:54.048Z,5.75
2023-01-07T11:44:27.855Z,5.35
2023-01-07T11:46:19.705Z,5.90
2023-01-07T11:48:01.792Z,6.32
2023-01-07T11:49:44.730Z,4.90
2023-01-07T11:51:40.720Z,5.72
2023-01-07T11:53:45.649Z,5.55
2023-01-07T11:55:21.664Z,5.20
2023-01-07T11:56:55.676Z,7.10
2023-01-07T11:58:32.185Z,7.30
2023-01-07T12:00:17.407Z,4.63
2023-01-07T12:05:22.327Z,7.90
2023-01-07T12:06:57.919Z,6.22
2023-01-07T12:08:30.997Z,5.60
2023-01-07T12:10:04.092Z,6.10
2023-01-07T12:11:46.064Z,4.70
2023-01-07T12:13:25.119Z,5.93
2023-01-07T12:14:59.660Z,5.00
2023-01-07T12:16:46.094Z,5.20
2023-01-07T12:19:01.698Z,5.70
2023-01-07T12:20:52.700Z,6.72
2023-01-07T12:22:33.666Z,5.07
2023-01-07T12:24:49.227Z,7.72
2023-01-07T12:27:09.767Z,7.10
2023-01-07T12:29:07.072Z,6.47
2023-01-07T12:33:26.934Z,4.43
2023-01-07T12:35:15.091Z,8.13
2023-01-07T12:37:09.507Z,5.05
2023-01-07T12:38:48.362Z,6.28
2023-01-07T12:40:30.027Z,5.82
2023-01-07T12:42:09.074Z,5.75
2023-01-07T12:43:49.330Z,6.35
2023-01-07T12:45:27.070Z,6.55
2023-01-07T12:47:30.774Z,5.68
2023-01-07T12:49:11.389Z,4.40
2023-01-07T12:50:47.432Z,5.28
2023-01-07T12:52:25.527Z,5.57
2023-01-07T12:54:02.854Z,5.00
2023-01-07T12:55:40.843Z,4.10
2023-01-07T12:57:20.055Z,5.65
2023-01-07T12:58:59.921Z,6.00
2023-01-07T13:00:40.473Z,5.30
2023-01-07T13:02:20.994Z,3.92
2023-01-07T13:04:05.649Z,6.70
2023-01-07T13:05:43.183Z,5.47
2023-01-07T13:07:19.509Z,7.07
2023-01-07T13:08:58.692Z,4.82
2023-01-07T13:10:37.628Z,8.55
2023-01-07T13:12:42.220Z,4.82
2023-01-07T13:14:21.927Z,5.28
2023-01-07T13:15:54.935Z,6.75
2023-01-07T13:17:28.498Z,6.15
2023-01-07T13:19:01.440Z,6.55
2023-01-07T13:20:46.797Z,5.30
2023-01-07T13:22:32.190Z,5.95
2023-01-07T13:24:55.079Z,5.32
2023-01-07T13:26:40.567Z,7.40
2023-01-07T13:28:33.869Z,4.75
2023-01-07T13:30:21.037Z,6.38
2023-01-07T13:32:25.679Z,5.70
2023-01-07T13:34:11.870Z,5.95
2023-01-07T13:36:17.770Z,5.28
2023-01-07T13:38:30.015Z,5.22
2023-01-07T13:40:19.904Z,6.53
2023-01-07T13:42:07.266Z,5.15
2023-01-07T13:43:52.553Z,6.00
2023-01-07T13:45:28.761Z,7.07
2023-01-07T13:47:04.776Z,5.65
2023-01-07T13:48:41.045Z,5.05
2023-01-07T13:50:24.105Z,6.53
2023-01-07T13:51:58.192Z,5.18
2023-01-07T13:53:46.904Z,5.47
2023-01-07T13:55:38.902Z,7.95
2023-01-07T13:57:46.894Z,5.35
2023-01-07T13:59:31.805Z,6.05
2023-01-07T14:01:34.572Z,5.43
2023-01-07T14:03:32.743Z,5.15
2023-01-07T14:05:07.229Z,6.80
2023-01-07T14:06:53.297Z,6.25
2023-01-07T14:08:29.371Z,5.53
2023-01-07T14:10:02.780Z,7.55
2023-01-07T14:11:50.485Z,6.00
2023-01-07T14:13:32.936Z,6.32
2023-01-07T14:15:38.789Z,7.30
2023-01-07T14:17:22.903Z,6.35
2023-01-07T14:19:14.289Z,5.40
2023-01-07T14:20:50.140Z,7.53
2023-01-07T14:22:45.648Z,7.40
2023-01-07T14:24:56.853Z,8.52
2023-01-07T14:26:35.242Z,6.97
2023-01-07T14:28:32.010Z,9.38
2023-01-07T14:30:20.402Z,9.75
2023-01-07T14:34:41.080Z,8.48
2023-01-07T14:37:48.367Z,7.47
2023-01-07T14:39:35.027Z,6.03
2023-01-07T14:41:26.418Z,6.30
2023-01-07T14:43:00.268Z,6.43
2023-01-07T14:44:33.206Z,6.78
2023-01-07T14:46:06.281Z,5.47
2023-01-07T14:47:56.092Z,7.18
2023-01-07T14:49:55.957Z,7.60
2023-01-07T14:52:01.869Z,6.97
2023-01-07T14:53:49.283Z,6.93
2023-01-07T14:55:40.194Z,5.45
2023-01-07T14:57:26.170Z,6.75
2023-01-07T14:59:16.572Z,6.90
2023-01-07T15:01:45.000Z,6.35
2023-01-07T15:04:06.497Z,8.05
2023-01-07T15:05:55.682Z,6.35
2023-01-07T15:07:33.526Z,6.57
2023-01-07T15:09:36.482Z,7.30
2023-01-07T15:14:15.721Z,8.25
2023-01-07T15:16:16.722Z,7.85
2023-01-07T15:17:49.692Z,5.78
2023-01-07T15:19:24.390Z,6.20
2023-01-07T15:23:24.311Z,6.72
2023-01-07T15:25:03.744Z,7.40
2023-01-07T15:26:44.395Z,7.88
2023-01-07T15:28:22.420Z,7.93
2023-01-07T15:30:01.788Z,8.27
2023-01-07T15:31:52.638Z,7.05
2023-01-07T15:33:43.128Z,6.07
2023-01-07T15:35:20.371Z,5.93
2023-01-07T15:36:53.940Z,6.45
2023-01-07T15:38:29.914Z,8.38
2023-01-07T15:40:02.938Z,6.68
2023-01-07T15:41:51.333Z,7.60
2023-01-07T15:43:28.085Z,6.93
2023-01-07T15:45:01.683Z,6.97
2023-01-07T15:46:34.813Z,7.50
2023-01-07T15:48:12.703Z,10.25
2023-01-07T15:49:45.657Z,8.85
2023-01-07T15:51:25.708Z,9.82
2023-01-07T15:53:20.213Z,7.40
2023-01-07T15:54:53.262Z,9.07
2023-01-07T15:56:26.364Z,9.10
2023-01-07T15:58:04.010Z,10.70
2023-01-07T15:59:39.661Z,10.23
2023-01-07T16:01:19.410Z,10.27
2023-01-07T16:03:02.650Z,11.75
2023-01-07T16:04:38.561Z,11.35
2023-01-07T16:06:34.286Z,17.75
2023-01-07T16:08:07.427Z,10.00
2023-01-07T16:09:40.400Z,8.52
2023-01-07T16:11:26.303Z,10.43
2023-01-07T16:13:18.915Z,8.70
2023-01-07T16:14:51.894Z,10.55
2023-01-07T16:16:25.299Z,8.95
2023-01-07T16:19:31.646Z,9.83
2023-01-07T16:21:15.016Z,10.18
2023-01-07T16:23:19.102Z,10.38
2023-01-07T16:24:54.015Z,10.25
2023-01-07T16:26:32.621Z,9.98
2023-01-07T16:28:06.006Z,10.95
2023-01-07T16:31:35.372Z,8.98
2023-01-07T16:33:22.954Z,8.68
2023-01-07T16:35:01.652Z,9.30
2023-01-07T16:36:41.817Z,12.50
2023-01-07T16:38:18.301Z,9.75
2023-01-07T16:39:52.496Z,10.82
2023-01-07T16:41:26.850Z,10.00
2023-01-07T16:42:59.777Z,10.23
2023-01-07T16:45:06.560Z,12.15
2023-01-07T16:46:44.930Z,11.35
2023-01-07T16:48:22.455Z,11.55
2023-01-07T16:49:58.456Z,12.32
2023-01-07T16:51:43.864Z,13.43
2023-01-07T16:53:28.063Z,10.85
2023-01-07T16:55:01.597Z,13.20
2023-01-07T16:56:51.615Z,10.60
2023-01-07T16:58:36.690Z,10.65
2023-01-07T17:00:18.890Z,13.63
2023-01-07T17:04:40.744Z,11.38
2023-01-07T17:06:13.924Z,9.43
2023-01-07T17:07:49.005Z,11.65
2023-01-07T17:09:26.102Z,10.32
2023-01-07T17:11:22.710Z,11.13
2023-01-07T17:13:01.326Z,10.77
2023-01-07T17:14:46.463Z,9.98
2023-01-07T17:16:31.561Z,13.43
2023-01-07T17:18:30.221Z,11.82
2023-01-07T17:20:18.981Z,12.10
2023-01-07T17:22:04.686Z,12.63
2023-01-07T17:24:02.882Z,12.85
2023-01-07T17:25:37.330Z,11.85
2023-01-07T17:27:19.057Z,11.80
2023-01-07T17:28:54.582Z,13.98
2023-01-07T17:30:34.682Z,12.23
2023-01-07T17:32:15.140Z,13.70
2023-01-07T17:33:57.572Z,11.60
2023-01-07T17:35:30.742Z,14.27
2023-01-07T17:37:03.750Z,10.82
2023-01-07T17:38:37.003Z,9.70
2023-01-07T17:40:11.112Z,11.63
2023-01-07T17:42:08.239Z,20.95
2023-01-07T17:43:41.220Z,16.10
2023-01-07T17:45:21.195Z,14.80
2023-01-07T17:47:03.326Z,11.00
2023-01-07T17:48:40.604Z,10.55
2023-01-07T17:50:15.180Z,9.93
2023-01-07T17:51:53.842Z,10.00
2023-01-07T17:53:29.477Z,8.45
2023-01-07T17:55:02.761Z,11.65
2023-01-07T17:56:53.776Z,10.98
2023-01-07T17:58:31.140Z,11.25
2023-01-07T18:00:04.485Z,10.77
2023-01-07T18:03:10.733Z,10.80
2023-01-07T18:06:18.756Z,11.55
2023-01-07T18:08:00.752Z,12.07
2023-01-07T18:09:34.021Z,12.38
2023-01-07T18:12:14.960Z,12.82
2023-01-07T18:13:49.338Z,13.05
2023-01-07T18:15:25.433Z,12.93
2023-01-07T18:16:58.775Z,12.77
2023-01-07T18:20:05.321Z,11.90
2023-01-07T18:21:38.202Z,12.63
2023-01-07T18:23:12.184Z,13.48
2023-01-07T18:24:45.177Z,12.73
2023-01-07T18:26:18.594Z,12.00
2023-01-07T18:29:27.503Z,12.07
2023-01-07T18:31:31.233Z,12.73
2023-01-07T18:33:05.642Z,12.18
2023-01-07T18:34:38.638Z,11.40
2023-01-07T18:36:33.290Z,11.85
2023-01-07T18:38:21.266Z,12.40
2023-01-07T18:39:54.196Z,13.35
2023-01-07T18:41:27.116Z,14.73
2023-01-07T18:43:00.946Z,13.63
2023-01-07T18:44:35.403Z,14.57
2023-01-07T18:46:23.669Z,12.25
2023-01-07T18:47:56.623Z,12.10
2023-01-07T18:49:29.567Z,12.30
2023-01-07T18:51:02.559Z,13.68
2023-01-07T18:52:35.724Z,12.13
2023-01-07T18:54:08.906Z,14.38
2023-01-07T18:55:43.397Z,11.65
2023-01-07T18:57:47.381Z,13.82
2023-01-07T18:59:49.752Z,12.57
2023-01-07T19:01:23.189Z,15.30
2023-01-07T19:02:58.188Z,13.48
2023-01-07T19:04:31.351Z,13.90
2023-01-07T19:06:24.169Z,14.43
2023-01-07T19:07:57.364Z,12.95
2023-01-07T19:10:08.429Z,12.63
2023-01-07T19:11:41.963Z,14.10
2023-01-07T19:13:18.111Z,11.43
2023-01-07T19:14:52.476Z,11.02
2023-01-07T19:16:25.518Z,10.77
2023-01-07T19:17:58.580Z,12.90
2023-01-07T19:19:37.107Z,12.80
2023-01-07T19:21:31.684Z,11.68
2023-01-07T19:23:17.137Z,12.07
2023-01-07T19:24:50.072Z,12.13
2023-01-07T19:26:23.308Z,12.27
2023-01-07T19:27:56.758Z,13.18
2023-01-07T19:31:36.320Z,11.10
2023-01-07T19:34:11.314Z,13.88
2023-01-07T19:35:44.235Z,11.90
2023-01-07T19:37:17.187Z,12.27
2023-01-07T19:38:50.364Z,13.30
2023-01-07T19:40:23.647Z,13.88
2023-01-07T19:42:12.763Z,13.52
2023-01-07T19:43:46.684Z,12.15
2023-01-07T19:45:19.625Z,11.73
2023-01-07T19:46:54.002Z,12.90
2023-01-07T19:48:28.127Z,12.43
2023-01-07T19:50:01.058Z,12.57
2023-01-07T19:51:34.229Z,10.57
2023-01-07T19:53:35.457Z,13.30
2023-01-07T19:55:09.080Z,12.50
2023-01-07T19:56:43.568Z,11.30
2023-01-07T19:58:16.453Z,12.05
2023-01-07T19:59:49.351Z,15.70
2023-01-07T20:01:26.599Z,11.52
2023-01-07T20:03:13.061Z,12.68
2023-01-07T20:04:46.023Z,11.25
2023-01-07T20:06:21.526Z,11.82
2023-01-07T20:07:54.460Z,13.98
2023-01-07T20:09:27.598Z,13.73
2023-01-07T20:11:31.392Z,11.05
2023-01-07T20:13:34.398Z,11.10
2023-01-07T20:15:08.639Z,10.82
2023-01-07T20:16:42.268Z,13.90
2023-01-07T20:18:18.095Z,12.30
2023-01-07T20:19:51.004Z,13.18
2023-01-07T20:21:36.584Z,15.70
2023-01-07T20:23:37.362Z,12.25
2023-01-07T20:25:11.214Z,12.55
2023-01-07T20:26:44.105Z,12.50
2023-01-07T20:28:17.238Z,13.05
2023-01-07T20:29:50.121Z,12.07
2023-01-07T20:31:31.115Z,13.10
2023-01-07T20:34:06.082Z,11.07
2023-01-07T20:35:40.492Z,12.30
2023-01-07T20:37:13.641Z,13.73
2023-01-07T20:38:47.648Z,21.80
2023-01-07T20:40:23.239Z,15.18
2023-01-07T20:42:17.692Z,15.07
2023-01-07T20:43:55.141Z,12.98
2023-01-07T20:45:29.081Z,11.60
2023-01-07T20:47:06.538Z,13.48
2023-01-07T20:48:39.449Z,14.30
2023-01-07T20:50:15.217Z,13.88
2023-01-07T20:51:49.538Z,12.73
2023-01-07T20:53:56.328Z,14.18
2023-01-07T20:55:29.241Z,13.18
2023-01-07T20:57:02.678Z,12.70
2023-01-07T21:00:10.954Z,13.63
2023-01-07T21:02:15.188Z,12.73
2023-01-07T21:04:03.652Z,13.40
2023-01-07T21:05:38.903Z,13.63
2023-01-07T21:07:13.240Z,17.65
2023-01-07T21:08:47.601Z,14.63
2023-01-07T21:10:21.360Z,12.40
2023-01-07T21:12:06.646Z,15.02
2023-01-07T21:13:39.695Z,13.65
2023-01-07T21:15:13.946Z,14.02
2023-01-07T21:16:46.991Z,14.45
2023-01-07T21:18:20.290Z,12.43
2023-01-07T21:19:53.309Z,13.95
2023-01-07T21:21:41.874Z,13.90
2023-01-07T21:23:16.193Z,12.98
2023-01-07T21:24:49.067Z,11.40
2023-01-07T21:26:31.307Z,13.77
2023-01-07T21:28:05.358Z,12.52
2023-01-07T21:29:38.206Z,12.38
2023-01-07T21:31:20.343Z,13.63
2023-01-07T21:33:05.639Z,10.23
2023-01-07T21:34:38.541Z,13.80
2023-01-07T21:36:13.436Z,13.45
2023-01-07T21:37:46.516Z,15.80
2023-01-07T21:39:20.841Z,14.75
2023-01-07T21:40:53.986Z,14.60
2023-01-07T21:42:26.919Z,13.30
2023-01-07T21:43:59.791Z,12.95
2023-01-07T21:45:32.759Z,12.93
2023-01-07T21:47:15.022Z,14.77
2023-01-07T21:48:47.897Z,14.85
2023-01-07T21:50:20.811Z,15.32
2023-01-07T21:51:54.018Z,14.93
2023-01-07T21:53:26.889Z,14.38
2023-01-07T21:55:01.355Z,14.13
2023-01-07T21:56:49.693Z,16.30
2023-01-07T21:58:22.572Z,13.52
2023-01-07T21:59:55.521Z,13.63
2023-01-07T22:01:29.304Z,14.63
2023-01-07T22:03:02.670Z,12.93
2023-01-07T22:04:35.754Z,14.85
2023-01-07T22:06:39.546Z,14.85
2023-01-07T22:08:28.171Z,14.18
2023-01-07T22:10:02.433Z,14.43
2023-01-07T22:11:38.582Z,15.43
2023-01-07T22:13:11.468Z,13.40
2023-01-07T22:14:44.436Z,15.88
2023-01-07T22:16:33.627Z,14.63
2023-01-07T22:18:31.755Z,15.70
2023-01-07T22:20:05.177Z,13.48
2023-01-07T22:23:16.801Z,15.80
2023-01-07T22:24:49.689Z,13.57
2023-01-07T22:26:41.140Z,15.05
2023-01-07T22:28:39.318Z,13.73
2023-01-07T22:30:14.120Z,14.52
2023-01-07T22:31:49.670Z,16.90
2023-01-07T22:33:23.095Z,17.27
2023-01-07T22:36:48.970Z,14.02
2023-01-07T22:38:24.414Z,16.17
2023-01-07T22:40:00.549Z,14.50
2023-01-07T22:41:36.037Z,15.10
2023-01-07T22:43:14.481Z,16.52
2023-01-07T22:44:51.021Z,15.30
2023-01-07T22:46:27.155Z,15.13
2023-01-07T22:48:00.481Z,15.45
2023-01-07T22:52:44.169Z,16.88
2023-01-07T22:54:17.971Z,18.50
2023-01-07T22:55:50.979Z,18.17
2023-01-07T22:57:27.134Z,17.65
2023-01-07T22:59:01.413Z,16.05
2023-01-07T23:00:42.181Z,18.50
2023-01-07T23:02:15.128Z,20.05
2023-01-07T23:03:49.127Z,18.98
2023-01-07T23:05:22.184Z,17.92
2023-01-07T23:06:55.255Z,16.27
2023-01-07T23:08:28.188Z,21.25
2023-01-07T23:10:01.152Z,17.35
2023-01-07T23:11:49.569Z,19.45
2023-01-07T23:13:23.396Z,18.40
2023-01-07T23:14:57.689Z,16.70